Time,TemperatureF,DewpointF,PressureIn,WindDirection,WindDirectionDegrees,WindSpeedMPH,WindSpeedGustMPH,Humidity,HourlyPrecipIn,Conditions,Clouds,dailyrainin,SolarRadiationWatts/m^2,SoftwareType,DateUTC
2013-08-09 00:11:00,57.0,55.0,-100.00,NNW,345,3.0,7.0,93,0.00,,,0.01,0.000000,,2013-08-09 05:11:00,
2013-08-09 00:22:00,57.0,55.0,-100.00,NNW,345,3.0,7.0,93,0.00,,,0.01,0.000000,,2013-08-09 05:22:00,
2013-08-09 00:32:00,57.0,55.0,-100.00,NNW,345,3.0,7.0,93,0.00,,,0.01,0.000000,,2013-08-09 05:32:00,
2013-08-09 00:43:00,57.0,55.0,-100.00,NNW,345,3.0,7.0,93,0.00,,,0.01,0.000000,,2013-08-09 05:43:00,
2013-08-09 00:51:00,56.0,55.0,-100.00,West,279,4.0,5.0,97,0.00,,,0.01,0.000000,,2013-08-09 05:51:00,
2013-08-09 01:11:00,56.0,55.0,-100.00,West,279,4.0,5.0,97,0.00,,,0.01,0.000000,,2013-08-09 06:11:00,
2013-08-09 01:21:00,56.0,55.0,-100.00,West,279,4.0,5.0,97,0.00,,,0.01,0.000000,,2013-08-09 06:21:00,
2013-08-09 01:32:00,56.0,55.0,-100.00,West,279,4.0,5.0,97,0.00,,,0.01,0.000000,,2013-08-09 06:32:00,
2013-08-09 01:43:00,56.0,55.0,-100.00,West,279,4.0,5.0,97,0.00,,,0.01,0.000000,,2013-08-09 06:43:00,
2013-08-09 01:51:00,58.0,57.0,-100.00,WSW,255,2.0,5.0,97,0.00,,,0.01,0.000000,,2013-08-09 06:51:00,
2013-08-09 02:12:00,58.0,57.0,-100.00,WSW,255,2.0,5.0,97,0.00,,,0.01,0.000000,,2013-08-09 07:12:00,
2013-08-09 02:22:00,58.0,57.0,-100.00,WSW,255,2.0,5.0,97,0.00,,,0.01,0.000000,,2013-08-09 07:22:00,
2013-08-09 02:33:00,58.0,57.0,-100.00,WSW,255,2.0,5.0,97,0.00,,,0.01,0.000000,,2013-08-09 07:33:00,
2013-08-09 02:43:00,58.0,57.0,-100.00,WSW,255,2.0,5.0,97,0.00,,,0.01,0.000000,,2013-08-09 07:43:00,
2013-08-09 02:51:00,57.0,55.0,-100.00,WNW,296,4.0,5.0,93,0.00,,,0.01,0.000000,,2013-08-09 07:51:00,
2013-08-09 03:12:00,57.0,55.0,-100.00,WNW,296,4.0,5.0,93,0.00,,,0.01,0.000000,,2013-08-09 08:12:00,
2013-08-09 03:22:00,57.0,55.0,-100.00,WNW,296,4.0,5.0,93,0.00,,,0.01,0.000000,,2013-08-09 08:22:00,
2013-08-09 03:32:00,57.0,55.0,-100.00,WNW,296,4.0,5.0,93,0.00,,,0.01,0.000000,,2013-08-09 08:32:00,
2013-08-09 03:43:00,57.0,55.0,-100.00,WNW,296,4.0,5.0,93,0.00,,,0.01,0.000000,,2013-08-09 08:43:00,
2013-08-09 03:51:00,56.0,54.0,-100.00,NW,325,3.0,6.0,92,0.00,,,0.01,0.000000,,2013-08-09 08:51:00,
2013-08-09 04:12:00,56.0,54.0,-100.00,NW,325,3.0,6.0,92,0.00,,,0.01,0.000000,,2013-08-09 09:12:00,
2013-08-09 04:22:00,56.0,54.0,-100.00,NW,325,3.0,6.0,92,0.00,,,0.01,0.000000,,2013-08-09 09:22:00,
2013-08-09 04:32:00,56.0,54.0,-100.00,NW,325,3.0,6.0,92,0.00,,,0.01,0.000000,,2013-08-09 09:32:00,
2013-08-09 04:43:00,56.0,54.0,-100.00,NW,325,3.0,6.0,92,0.00,,,0.01,0.000000,,2013-08-09 09:43:00,
2013-08-09 04:51:00,54.0,53.0,-100.00,West,280,1.0,4.0,98,0.00,,,0.01,0.000000,,2013-08-09 09:51:00,
2013-08-09 05:12:00,54.0,53.0,-100.00,West,280,1.0,4.0,98,0.00,,,0.01,0.000000,,2013-08-09 10:12:00,
2013-08-09 05:22:00,54.0,53.0,-100.00,West,280,1.0,4.0,98,0.00,,,0.01,0.000000,,2013-08-09 10:22:00,
2013-08-09 05:32:00,54.0,53.0,-100.00,West,280,1.0,4.0,98,0.00,,,0.01,0.000000,,2013-08-09 10:32:00,
2013-08-09 05:43:00,54.0,53.0,-100.00,West,280,1.0,4.0,98,0.00,,,0.01,0.000000,,2013-08-09 10:43:00,
2013-08-09 05:51:00,55.0,53.0,-100.00,NW,315,5.0,7.0,93,0.00,,,0.01,0.000000,,2013-08-09 10:51:00,
2013-08-09 06:11:00,55.0,53.0,-100.00,NW,315,5.0,7.0,93,0.00,,,0.01,0.000000,,2013-08-09 11:11:00,
2013-08-09 06:22:00,55.0,53.0,-100.00,NW,315,5.0,7.0,93,0.00,,,0.01,0.000000,,2013-08-09 11:22:00,
2013-08-09 06:33:00,55.0,53.0,-100.00,NW,315,5.0,7.0,93,0.00,,,0.01,0.000000,,2013-08-09 11:33:00,
2013-08-09 06:42:00,55.0,53.0,-100.00,NW,315,5.0,7.0,93,0.00,,,0.01,0.000000,,2013-08-09 11:42:00,
2013-08-09 06:51:00,55.0,53.0,-100.00,NW,322,6.0,11.0,93,0.00,,,0.01,10.000000,,2013-08-09 11:51:00,
2013-08-09 07:12:00,55.0,53.0,-100.00,NW,322,6.0,11.0,93,0.00,,,0.01,10.000000,,2013-08-09 12:12:00,
2013-08-09 07:22:00,55.0,53.0,-100.00,NW,322,6.0,11.0,93,0.00,,,0.01,10.000000,,2013-08-09 12:22:00,
2013-08-09 07:32:00,55.0,53.0,-100.00,NW,322,6.0,11.0,93,0.00,,,0.01,10.000000,,2013-08-09 12:32:00,
2013-08-09 07:43:00,55.0,53.0,-100.00,NW,322,6.0,11.0,93,0.00,,,0.01,10.000000,,2013-08-09 12:43:00,
2013-08-09 07:51:00,58.0,55.0,-100.00,West,275,3.0,7.0,90,0.00,,,0.00,111.000000,,2013-08-09 12:51:00,
2013-08-09 08:12:00,58.0,55.0,-100.00,West,275,3.0,7.0,90,0.00,,,0.00,111.000000,,2013-08-09 13:12:00,
2013-08-09 08:23:00,58.0,55.0,-100.00,West,275,3.0,7.0,90,0.00,,,0.00,111.000000,,2013-08-09 13:23:00,
2013-08-09 08:32:00,58.0,55.0,-100.00,West,275,3.0,7.0,90,0.00,,,0.00,111.000000,,2013-08-09 13:32:00,
2013-08-09 08:43:00,58.0,55.0,-100.00,West,275,3.0,7.0,90,0.00,,,0.00,111.000000,,2013-08-09 13:43:00,
2013-08-09 08:51:00,63.0,56.0,-100.00,WNW,282,4.0,8.0,78,0.00,,,0.00,288.000000,,2013-08-09 13:51:00,
2013-08-09 09:11:00,63.0,56.0,-100.00,WNW,282,4.0,8.0,78,0.00,,,0.00,288.000000,,2013-08-09 14:11:00,
2013-08-09 09:22:00,63.0,56.0,-100.00,WNW,282,4.0,8.0,78,0.00,,,0.00,288.000000,,2013-08-09 14:22:00,
2013-08-09 09:33:00,63.0,56.0,-100.00,WNW,282,4.0,8.0,78,0.00,,,0.00,288.000000,,2013-08-09 14:33:00,
2013-08-09 09:43:00,63.0,56.0,-100.00,WNW,282,4.0,8.0,78,0.00,,,0.00,288.000000,,2013-08-09 14:43:00,
2013-08-09 09:51:00,67.0,54.0,-100.00,NW,316,6.0,10.0,62,0.00,,,0.00,477.000000,,2013-08-09 14:51:00,
2013-08-09 10:11:00,67.0,54.0,-100.00,NW,316,6.0,10.0,62,0.00,,,0.00,477.000000,,2013-08-09 15:11:00,
2013-08-09 10:22:00,67.0,54.0,-100.00,NW,316,6.0,10.0,62,0.00,,,0.00,477.000000,,2013-08-09 15:22:00,
2013-08-09 10:33:00,67.0,54.0,-100.00,NW,316,6.0,10.0,62,0.00,,,0.00,477.000000,,2013-08-09 15:33:00,
2013-08-09 10:44:00,67.0,54.0,-100.00,NW,316,6.0,10.0,62,0.00,,,0.00,477.000000,,2013-08-09 15:44:00,
2013-08-09 10:51:00,68.0,53.0,-100.00,NW,308,8.0,12.0,59,0.00,,,0.00,657.000000,,2013-08-09 15:51:00,
2013-08-09 11:11:00,68.0,53.0,-100.00,NW,308,8.0,12.0,59,0.00,,,0.00,657.000000,,2013-08-09 16:11:00,
2013-08-09 11:22:00,68.0,53.0,-100.00,NW,308,8.0,12.0,59,0.00,,,0.00,657.000000,,2013-08-09 16:22:00,
2013-08-09 11:32:00,68.0,53.0,-100.00,NW,308,8.0,12.0,59,0.00,,,0.00,657.000000,,2013-08-09 16:32:00,
2013-08-09 11:43:00,68.0,53.0,-100.00,NW,308,8.0,12.0,59,0.00,,,0.00,657.000000,,2013-08-09 16:43:00,
2013-08-09 11:51:00,70.0,53.0,-100.00,NW,323,7.0,16.0,54,0.00,,,0.00,819.000000,,2013-08-09 16:51:00,
2013-08-09 12:11:00,70.0,53.0,-100.00,NW,323,7.0,16.0,54,0.00,,,0.00,819.000000,,2013-08-09 17:11:00,
2013-08-09 12:22:00,70.0,53.0,-100.00,NW,323,7.0,16.0,54,0.00,,,0.00,819.000000,,2013-08-09 17:22:00,
2013-08-09 12:33:00,70.0,53.0,-100.00,NW,323,7.0,16.0,54,0.00,,,0.00,819.000000,,2013-08-09 17:33:00,
2013-08-09 12:43:00,70.0,53.0,-100.00,NW,323,7.0,16.0,54,0.00,,,0.00,819.000000,,2013-08-09 17:43:00,
2013-08-09 12:51:00,71.0,52.0,-100.00,NNW,328,9.0,16.0,52,0.00,,,0.00,905.000000,,2013-08-09 17:51:00,
2013-08-09 13:11:00,71.0,52.0,-100.00,NNW,328,9.0,16.0,52,0.00,,,0.00,905.000000,,2013-08-09 18:11:00,
2013-08-09 13:22:00,71.0,52.0,-100.00,NNW,328,9.0,16.0,52,0.00,,,0.00,905.000000,,2013-08-09 18:22:00,
2013-08-09 13:32:00,71.0,52.0,-100.00,NNW,328,9.0,16.0,52,0.00,,,0.00,905.000000,,2013-08-09 18:32:00,
2013-08-09 13:43:00,71.0,52.0,-100.00,NNW,328,9.0,16.0,52,0.00,,,0.00,905.000000,,2013-08-09 18:43:00,
2013-08-09 13:51:00,73.0,53.0,-100.00,NW,316,8.0,16.0,49,0.00,,,0.00,952.000000,,2013-08-09 18:51:00,
2013-08-09 14:11:00,73.0,53.0,-100.00,NW,316,8.0,16.0,49,0.00,,,0.00,952.000000,,2013-08-09 19:11:00,
2013-08-09 14:22:00,73.0,53.0,-100.00,NW,316,8.0,16.0,49,0.00,,,0.00,952.000000,,2013-08-09 19:22:00,
2013-08-09 14:32:00,73.0,53.0,-100.00,NW,316,8.0,16.0,49,0.00,,,0.00,952.000000,,2013-08-09 19:32:00,
2013-08-09 14:43:00,73.0,53.0,-100.00,NW,316,8.0,16.0,49,0.00,,,0.00,952.000000,,2013-08-09 19:43:00,
2013-08-09 14:51:00,74.0,51.0,-100.00,NW,305,10.0,17.0,45,0.00,,,0.00,946.000000,,2013-08-09 19:51:00,
2013-08-09 15:11:00,74.0,51.0,-100.00,NW,305,10.0,17.0,45,0.00,,,0.00,946.000000,,2013-08-09 20:11:00,
2013-08-09 15:22:00,74.0,51.0,-100.00,NW,305,10.0,17.0,45,0.00,,,0.00,946.000000,,2013-08-09 20:22:00,
2013-08-09 15:32:00,74.0,51.0,-100.00,NW,305,10.0,17.0,45,0.00,,,0.00,946.000000,,2013-08-09 20:32:00,
2013-08-09 15:43:00,74.0,51.0,-100.00,NW,305,10.0,17.0,45,0.00,,,0.00,946.000000,,2013-08-09 20:43:00,
2013-08-09 15:51:00,76.0,52.0,-100.00,WNW,302,9.0,18.0,43,0.00,,,0.00,904.000000,,2013-08-09 20:51:00,
2013-08-09 16:12:00,76.0,52.0,-100.00,WNW,302,9.0,18.0,43,0.00,,,0.00,904.000000,,2013-08-09 21:12:00,
2013-08-09 16:22:00,76.0,52.0,-100.00,WNW,302,9.0,18.0,43,0.00,,,0.00,904.000000,,2013-08-09 21:22:00,
2013-08-09 16:33:00,76.0,52.0,-100.00,WNW,302,9.0,18.0,43,0.00,,,0.00,904.000000,,2013-08-09 21:33:00,
2013-08-09 16:43:00,76.0,52.0,-100.00,WNW,302,9.0,18.0,43,0.00,,,0.00,904.000000,,2013-08-09 21:43:00,
2013-08-09 16:51:00,75.0,53.0,-100.00,NNW,330,10.0,17.0,46,0.00,,,0.00,709.000000,,2013-08-09 21:51:00,
2013-08-09 17:11:00,75.0,53.0,-100.00,NNW,330,10.0,17.0,46,0.00,,,0.00,709.000000,,2013-08-09 22:11:00,
2013-08-09 17:22:00,75.0,53.0,-100.00,NNW,330,10.0,17.0,46,0.00,,,0.00,709.000000,,2013-08-09 22:22:00,
2013-08-09 17:32:00,75.0,53.0,-100.00,NNW,330,10.0,17.0,46,0.00,,,0.00,709.000000,,2013-08-09 22:32:00,
2013-08-09 17:42:00,75.0,53.0,-100.00,NNW,330,10.0,17.0,46,0.00,,,0.00,709.000000,,2013-08-09 22:42:00,
2013-08-09 17:51:00,76.0,52.0,-100.00,NW,316,10.0,16.0,44,0.00,,,-99.99,626.000000,,2013-08-09 22:51:00,
2013-08-09 18:11:00,76.0,52.0,-100.00,NW,316,10.0,16.0,44,0.00,,,-99.99,626.000000,,2013-08-09 23:11:00,
2013-08-09 18:22:00,76.0,52.0,-100.00,NW,316,10.0,16.0,44,0.00,,,-99.99,626.000000,,2013-08-09 23:22:00,
2013-08-09 18:32:00,76.0,52.0,-100.00,NW,316,10.0,16.0,44,0.00,,,-99.99,626.000000,,2013-08-09 23:32:00,
2013-08-09 18:43:00,76.0,52.0,-100.00,NW,316,10.0,16.0,44,0.00,,,-99.99,626.000000,,2013-08-09 23:43:00,
2013-08-09 18:51:00,72.0,53.0,-100.00,NNW,347,8.0,16.0,51,0.00,,,0.00,290.000000,,2013-08-09 23:51:00,
2013-08-09 19:11:00,72.0,53.0,-100.00,NNW,347,8.0,16.0,51,0.00,,,0.00,290.000000,,2013-08-10 00:11:00,
2013-08-09 19:22:00,72.0,53.0,-100.00,NNW,347,8.0,16.0,51,0.00,,,0.00,290.000000,,2013-08-10 00:22:00,
2013-08-09 19:33:00,72.0,53.0,-100.00,NNW,347,8.0,16.0,51,0.00,,,0.00,290.000000,,2013-08-10 00:33:00,
2013-08-09 19:43:00,72.0,53.0,-100.00,NNW,347,8.0,16.0,51,0.00,,,0.00,290.000000,,2013-08-10 00:43:00,
2013-08-09 19:51:00,69.0,55.0,-100.00,NNE,21,7.0,12.0,60,0.00,,,0.00,200.000000,,2013-08-10 00:51:00,
2013-08-09 20:11:00,69.0,55.0,-100.00,NNE,21,7.0,12.0,60,0.00,,,0.00,200.000000,,2013-08-10 01:11:00,
2013-08-09 20:22:00,69.0,55.0,-100.00,NNE,21,7.0,12.0,60,0.00,,,0.00,200.000000,,2013-08-10 01:22:00,
2013-08-09 20:32:00,69.0,55.0,-100.00,NNE,21,7.0,12.0,60,0.00,,,0.00,200.000000,,2013-08-10 01:32:00,
2013-08-09 20:42:00,69.0,55.0,-100.00,NNE,21,7.0,12.0,60,0.00,,,0.00,200.000000,,2013-08-10 01:42:00,
2013-08-09 20:51:00,62.0,55.0,-100.00,North,354,5.0,11.0,77,0.00,,,0.00,40.000000,,2013-08-10 01:51:00,
2013-08-09 21:11:00,62.0,55.0,-100.00,North,354,5.0,11.0,77,0.00,,,0.00,40.000000,,2013-08-10 02:11:00,
2013-08-09 21:21:00,62.0,55.0,-100.00,North,354,5.0,11.0,77,0.00,,,0.00,40.000000,,2013-08-10 02:21:00,
2013-08-09 21:32:00,62.0,55.0,-100.00,North,354,5.0,11.0,77,0.00,,,0.00,40.000000,,2013-08-10 02:32:00,
2013-08-09 21:42:00,62.0,55.0,-100.00,North,354,5.0,11.0,77,0.00,,,0.00,40.000000,,2013-08-10 02:42:00,
2013-08-09 21:51:00,57.0,54.0,-100.00,East,95,0.0,4.0,90,0.00,,,0.00,0.000000,,2013-08-10 02:51:00,
2013-08-09 22:11:00,57.0,54.0,-100.00,East,95,0.0,4.0,90,0.00,,,0.00,0.000000,,2013-08-10 03:11:00,
2013-08-09 22:21:00,57.0,54.0,-100.00,East,95,0.0,4.0,90,0.00,,,0.00,0.000000,,2013-08-10 03:21:00,
2013-08-09 22:32:00,57.0,54.0,-100.00,East,95,0.0,4.0,90,0.00,,,0.00,0.000000,,2013-08-10 03:32:00,
2013-08-09 22:42:00,57.0,54.0,-100.00,East,95,0.0,4.0,90,0.00,,,0.00,0.000000,,2013-08-10 03:42:00,
2013-08-09 22:51:00,54.0,53.0,-100.00,North,10,1.0,2.0,95,0.00,,,0.00,0.000000,,2013-08-10 03:51:00,
2013-08-09 23:12:00,54.0,53.0,-100.00,North,10,1.0,2.0,95,0.00,,,0.00,0.000000,,2013-08-10 04:12:00,
2013-08-09 23:22:00,54.0,53.0,-100.00,North,10,1.0,2.0,95,0.00,,,0.00,0.000000,,2013-08-10 04:22:00,
2013-08-09 23:32:00,54.0,53.0,-100.00,North,10,1.0,2.0,95,0.00,,,0.00,0.000000,,2013-08-10 04:32:00,
2013-08-09 23:43:00,54.0,53.0,-100.00,North,10,1.0,2.0,95,0.00,,,0.00,0.000000,,2013-08-10 04:43:00,
2013-08-09 23:51:00,53.0,52.0,-100.00,NW,317,1.0,4.0,96,0.00,,,0.00,0.000000,,2013-08-10 04:51:00,